LiveATC.Net - Listen to live air traffic control over the Internet!


ICAO: KHAF  IATA: HAF   Airport: Half Moon Bay Airport
City: Half Moon Bay   State/Province: California
Country: United States   Continent: North America
KHAF METAR Weather: KHAF 281415Z AUTO 22004KT 1/4SM FG OVC003 12/12 A3001 RMK AO2
KHAF Flight Activity (FlightAware)
KHAF Webcam:  (Airport Webcams) 
KHAF Airport Info   (iFlightPlanner)
KHAF VFR Sectional Chart   (iFlightPlanner) 
KHAF IFR Low Altitude Chart   (iFlightPlanner) 
KHAF IFR High Altitude Chart   (iFlightPlanner) 

KHAF CTAF
Feed Status: UP   Listeners: 0
Listen in your browser - HTML5 player (in browser, HTML5)
Click here to listen with your own player (launches your MP3 player)
Archive Access: KHAF CTAF
FacilityFrequency
Half Moon Bay CTAF122.800

NOTICE

Unauthorized use prohibited. See LiveATC.net Terms of Service


Airport/ARTCC Code
Frequency Search
(e.g., 124.400, 128.75)
Site-wide search
 


Browse Feeds
Top 50 Feeds
HF Oceanic Feeds
Coverage Map
Bad Weather Areas

LiveATC FAQ
Offer LiveATC feed
Contact LiveATC.net
Press Inquiries

LiveATC on iPhone
LiveATC on Android

LiveATC Mobile
(Mobile browser)

ATC Audio Archives
Interesting Recordings

LiveATC Forums


Home Page
About LiveATC.net


Terms of Use
Privacy Policy

AIRMETs/SIGMETs

FAA Airport Status
NAS Status
Arrival Demand


Server Software By:
Icecast.org
Liquidsoap